Time;durP1;ratioP1;P1;durP2;ratioP2;P2;SDS_P1;SDS_P2;PMS_P1;PMS_P2;Temp;Humidity;BMP_temperature;BMP_pressure;BME280_temperature;BME280_humidity;BME280_pressure;Samples;Min_cycle;Max_cycle;Signal;HPM_P1;HPM_P2
2021/04/09 00:00:40;;;;;;;4.67;1.60;;;22.10;48.20;;;;;;5086384;28;20415;-81
2021/04/09 00:03:06;;;;;;;1.93;1.50;;;22.10;48.20;;;;;;5086069;28;20440;-81
2021/04/09 00:05:32;;;;;;;2.47;1.40;;;22.10;48.30;;;;;;5085639;28;20475;-81
2021/04/09 00:08:00;;;;;;;2.80;1.23;;;22.10;48.30;;;;;;5085249;28;20174;-81
2021/04/09 00:10:31;;;;;;;2.87;1.47;;;22.10;48.30;;;;;;5103297;28;20441;-81
2021/04/09 00:12:57;;;;;;;2.70;1.47;;;22.10;48.30;;;;;;5103598;28;20396;-81
2021/04/09 00:15:23;;;;;;;3.77;2.00;;;22.10;48.30;;;;;;5104202;28;20412;-81
2021/04/09 00:17:50;;;;;;;2.80;1.30;;;22.00;48.30;;;;;;5103794;28;20412;-82
2021/04/09 00:20:18;;;;;;;2.50;1.63;;;22.10;48.30;;;;;;5085213;28;20430;-81
2021/04/09 00:22:45;;;;;;;2.60;1.40;;;22.00;48.30;;;;;;5085261;28;20446;-81
2021/04/09 00:25:13;;;;;;;1.83;1.27;;;22.00;48.30;;;;;;5103699;28;20447;-81
2021/04/09 00:27:39;;;;;;;2.00;1.20;;;22.00;48.30;;;;;;5103077;28;20407;-81
2021/04/09 00:30:07;;;;;;;2.03;1.40;;;22.00;48.30;;;;;;5103271;28;20414;-81
2021/04/09 00:32:35;;;;;;;1.93;1.13;;;22.10;48.40;;;;;;5084847;28;20166;-81
2021/04/09 00:35:11;;;;;;;1.90;1.10;;;22.00;48.30;;;;;;5103795;28;20658;-80
2021/04/09 00:37:43;;;;;;;1.40;1.10;;;22.00;48.30;;;;;;5102920;28;20388;-81
2021/04/09 00:40:11;;;;;;;1.90;1.17;;;22.00;48.30;;;;;;5102804;28;20388;-81
2021/04/09 00:42:41;;;;;;;2.43;1.73;;;22.00;48.30;;;;;;5102755;28;20747;-81
2021/04/09 00:45:09;;;;;;;2.40;1.30;;;22.00;48.30;;;;;;5084626;28;20466;-81
2021/04/09 00:47:34;;;;;;;1.93;1.30;;;22.10;48.30;;;;;;5084566;28;20433;-81
2021/04/09 00:50:00;;;;;;;3.90;1.60;;;22.00;48.30;;;;;;5102560;28;20475;-81
2021/04/09 00:52:32;;;;;;;1.80;1.30;;;22.00;48.30;;;;;;5085020;28;20184;-82
2021/04/09 00:55:00;;;;;;;1.97;1.27;;;22.00;48.20;;;;;;5071273;28;20459;-81
2021/04/09 00:57:29;;;;;;;1.87;1.10;;;22.00;48.20;;;;;;5064721;28;20438;-82
2021/04/09 01:00:07;;;;;;;2.10;1.30;;;22.00;48.20;;;;;;5065401;28;20427;-81
2021/04/09 01:02:39;;;;;;;2.73;1.30;;;22.00;48.20;;;;;;5080302;28;20450;-82
2021/04/09 01:05:18;;;;;;;2.47;1.30;;;22.00;48.30;;;;;;5064873;28;20449;-82
2021/04/09 01:07:45;;;;;;;1.73;1.30;;;22.00;48.20;;;;;;5064551;28;21029;-82
2021/04/09 01:10:16;;;;;;;3.83;2.17;;;22.00;48.30;;;;;;5064900;28;20527;-82
2021/04/09 01:12:46;;;;;;;2.40;1.33;;;22.00;48.30;;;;;;5064325;28;20397;-82
2021/04/09 01:15:13;;;;;;;2.20;1.13;;;22.00;48.30;;;;;;5064607;28;20475;-82
2021/04/09 01:18:01;;;;;;;2.10;1.40;;;22.00;48.30;;;;;;5081540;28;20500;-82
2021/04/09 01:20:36;;;;;;;4.47;1.33;;;22.00;48.30;;;;;;5064497;28;20405;-82
2021/04/09 01:23:20;;;;;;;2.60;1.60;;;21.90;48.30;;;;;;5064545;28;20407;-82
2021/04/09 01:26:28;;;;;;;3.50;1.60;;;22.00;48.40;;;;;;5063769;28;20458;-82
2021/04/09 01:29:09;;;;;;;1.47;1.07;;;21.90;48.30;;;;;;5082664;28;20745;-81
2021/04/09 01:31:58;;;;;;;2.13;1.20;;;21.90;48.30;;;;;;5063544;28;20412;-81
2021/04/09 01:34:29;;;;;;;2.37;1.37;;;21.90;48.30;;;;;;5063117;28;20401;-81
2021/04/09 01:36:59;;;;;;;4.20;1.60;;;21.90;48.40;;;;;;5062762;28;20407;-82
2021/04/09 01:39:47;;;;;;;2.33;1.30;;;21.90;48.40;;;;;;5062881;28;20413;-82
2021/04/09 01:42:14;;;;;;;1.67;1.10;;;21.90;48.40;;;;;;5063439;28;20416;-82
2021/04/09 01:44:46;;;;;;;2.20;1.10;;;21.80;48.40;;;;;;5081082;28;20475;-82
2021/04/09 01:47:14;;;;;;;1.93;1.20;;;21.80;48.40;;;;;;5062809;28;20412;-82
2021/04/09 01:49:41;;;;;;;2.43;1.30;;;21.90;48.50;;;;;;5082150;28;20459;-81
2021/04/09 01:52:10;;;;;;;1.40;1.07;;;21.80;48.40;;;;;;5084213;28;20408;-80
2021/04/09 01:54:39;;;;;;;2.70;1.53;;;21.80;48.40;;;;;;5083928;28;20408;-82
2021/04/09 01:57:09;;;;;;;1.83;1.20;;;21.80;48.40;;;;;;5084256;28;20918;-82
2021/04/09 01:59:39;;;;;;;1.37;0.97;;;21.80;48.40;;;;;;5083754;28;20515;-82
2021/04/09 02:02:06;;;;;;;2.30;1.20;;;21.80;48.50;;;;;;5084446;28;20409;-81
2021/04/09 02:04:33;;;;;;;2.03;1.30;;;21.80;48.50;;;;;;5065655;28;20988;-82
2021/04/09 02:07:01;;;;;;;2.70;1.37;;;21.80;48.50;;;;;;5083697;28;20409;-82
2021/04/09 02:09:27;;;;;;;2.33;1.67;;;21.70;48.50;;;;;;5065555;28;20413;-82
2021/04/09 02:11:55;;;;;;;2.60;2.40;;;21.70;48.40;;;;;;5083809;28;20455;-82
2021/04/09 02:14:21;;;;;;;2.40;1.30;;;21.70;48.50;;;;;;5084662;28;20428;-82
2021/04/09 02:16:47;;;;;;;4.40;1.50;;;21.70;48.50;;;;;;5083927;28;20405;-83
2021/04/09 02:19:13;;;;;;;3.50;1.27;;;21.70;48.50;;;;;;5086753;28;20431;-83
2021/04/09 02:21:40;;;;;;;2.60;1.40;;;21.70;48.60;;;;;;5071810;28;20416;-84
2021/04/09 02:24:09;;;;;;;1.70;1.20;;;21.70;48.50;;;;;;5088609;28;20464;-84
2021/04/09 02:26:36;;;;;;;3.73;1.30;;;21.70;48.70;;;;;;5071972;28;20431;-83
2021/04/09 02:29:03;;;;;;;1.87;1.17;;;21.70;48.50;;;;;;5088889;28;20404;-83
2021/04/09 02:31:29;;;;;;;2.37;1.30;;;21.70;48.60;;;;;;5071344;28;20436;-84
2021/04/09 02:33:55;;;;;;;2.60;1.40;;;21.70;48.70;;;;;;5071348;28;20417;-83
2021/04/09 02:36:27;;;;;;;2.23;1.50;;;21.60;48.60;;;;;;5090046;28;20182;-83
2021/04/09 02:39:13;;;;;;;1.93;1.20;;;21.60;48.50;;;;;;5089485;28;20220;-83
2021/04/09 02:41:44;;;;;;;1.30;1.00;;;21.60;48.50;;;;;;5071431;28;20409;-84
2021/04/09 02:44:11;;;;;;;2.60;1.80;;;21.60;48.60;;;;;;5088844;28;20452;-84
2021/04/09 02:47:10;;;;;;;2.70;1.17;;;21.60;49.20;;;;;;5071850;28;20412;-83
2021/04/09 02:49:39;;;;;;;2.47;1.20;;;21.60;48.60;;;;;;5091289;28;20396;-84
2021/04/09 02:52:29;;;;;;;1.50;1.10;;;21.60;48.70;;;;;;5109347;28;20396;-84
2021/04/09 02:54:58;;;;;;;3.17;1.47;;;21.60;48.60;;;;;;5091583;28;20465;-84
2021/04/09 02:57:27;;;;;;;2.40;1.23;;;21.60;48.70;;;;;;5091103;28;20461;-84
2021/04/09 02:59:55;;;;;;;2.27;1.20;;;21.60;48.80;;;;;;5090604;28;20427;-84
2021/04/09 03:02:23;;;;;;;2.30;1.00;;;21.60;48.80;;;;;;5089711;28;20422;-84
2021/04/09 03:04:50;;;;;;;2.10;1.27;;;21.60;48.70;;;;;;5107695;28;20457;-84
2021/04/09 03:07:17;;;;;;;2.10;1.40;;;21.60;48.80;;;;;;5090457;28;20414;-84
2021/04/09 03:09:42;;;;;;;3.00;1.37;;;21.60;48.70;;;;;;5107930;28;20921;-84
2021/04/09 03:12:13;;;;;;;1.90;1.30;;;21.50;48.70;;;;;;5104853;28;20885;-82
2021/04/09 03:14:41;;;;;;;1.57;1.00;;;21.60;48.80;;;;;;5102232;28;20174;-82
2021/04/09 03:17:11;;;;;;;3.30;2.17;;;21.60;48.80;;;;;;5102978;28;20415;-82
2021/04/09 03:19:37;;;;;;;2.13;1.23;;;21.60;48.80;;;;;;5084590;28;20411;-82
2021/04/09 03:22:11;;;;;;;2.27;1.20;;;21.50;48.80;;;;;;5084810;28;20467;-81
2021/04/09 03:24:37;;;;;;;1.60;1.07;;;21.60;48.80;;;;;;5102447;28;20193;-82
2021/04/09 03:27:05;;;;;;;1.67;1.07;;;21.50;48.70;;;;;;5084535;28;20436;-82
2021/04/09 03:29:30;;;;;;;2.13;1.40;;;21.60;48.80;;;;;;5102127;28;20396;-82
2021/04/09 03:31:56;;;;;;;2.83;1.03;;;21.50;48.80;;;;;;5083537;28;20411;-81
2021/04/09 03:34:22;;;;;;;1.80;1.43;;;21.50;48.70;;;;;;5102085;28;20165;-81
2021/04/09 03:36:48;;;;;;;2.90;1.30;;;21.50;48.70;;;;;;5102057;28;20639;-81
2021/04/09 03:39:14;;;;;;;1.73;1.03;;;21.60;48.80;;;;;;5069205;28;21020;-82
2021/04/09 03:41:39;;;;;;;2.67;1.43;;;21.50;48.70;;;;;;5065069;28;20208;-82
2021/04/09 03:44:05;;;;;;;1.30;1.00;;;21.50;48.70;;;;;;5066880;28;20277;-82
2021/04/09 03:46:31;;;;;;;1.30;0.93;;;21.50;48.70;;;;;;5072698;28;20179;-82
2021/04/09 03:48:56;;;;;;;1.47;0.90;;;21.50;48.70;;;;;;5085486;28;20183;-82
2021/04/09 03:51:22;;;;;;;1.60;1.20;;;21.50;48.70;;;;;;5090374;28;20225;-83
2021/04/09 03:53:48;;;;;;;2.53;1.67;;;21.50;48.80;;;;;;5068478;28;20636;-82
2021/04/09 03:56:14;;;;;;;2.20;1.10;;;21.50;48.70;;;;;;5063997;28;20198;-82
2021/04/09 03:58:39;;;;;;;1.40;1.10;;;21.50;48.80;;;;;;5082647;28;20205;-82
2021/04/09 04:01:05;;;;;;;1.97;1.10;;;21.40;48.70;;;;;;5082599;28;20413;-82
2021/04/09 04:03:31;;;;;;;2.83;1.27;;;21.50;48.80;;;;;;5063292;28;20632;-82
2021/04/09 04:05:56;;;;;;;2.10;1.03;;;21.50;48.80;;;;;;5081752;28;20227;-82
2021/04/09 04:08:22;;;;;;;2.03;1.10;;;21.40;48.80;;;;;;5064684;28;20743;-82
2021/04/09 04:10:48;;;;;;;1.93;1.20;;;21.50;48.80;;;;;;5081662;28;20500;-82
2021/04/09 04:13:21;;;;;;;1.43;0.90;;;21.50;48.90;;;;;;5081644;28;20162;-80
2021/04/09 04:15:47;;;;;;;1.60;1.10;;;21.40;48.80;;;;;;5064265;28;20192;-82
2021/04/09 04:21:35;;;;;;;2.53;1.20;;;21.50;48.80;;;;;;5081662;28;20169;-83
2021/04/09 04:24:01;;;;;;;2.60;1.27;;;21.40;48.90;;;;;;5063756;28;20476;-82
2021/04/09 04:26:26;;;;;;;1.20;0.93;;;21.40;48.90;;;;;;5063344;28;20405;-82
2021/04/09 04:28:52;;;;;;;2.17;1.00;;;21.40;48.90;;;;;;5081209;28;20159;-82
2021/04/09 04:31:18;;;;;;;2.03;1.40;;;21.40;48.90;;;;;;5063172;28;20173;-82
2021/04/09 04:33:44;;;;;;;1.53;1.00;;;21.40;48.90;;;;;;5081604;28;20473;-82
2021/04/09 04:36:10;;;;;;;1.27;1.00;;;21.40;48.90;;;;;;5081333;28;20624;-82
2021/04/09 04:38:36;;;;;;;1.53;1.00;;;21.40;48.90;;;;;;5081218;28;20229;-82
2021/04/09 04:41:02;;;;;;;1.30;0.90;;;21.40;48.90;;;;;;5063787;28;20427;-82
2021/04/09 04:43:27;;;;;;;1.60;1.20;;;21.40;49.40;;;;;;5063566;28;20412;-82
2021/04/09 04:45:53;;;;;;;3.03;2.10;;;21.50;48.90;;;;;;5063848;28;20504;-82
2021/04/09 04:48:19;;;;;;;2.33;1.10;;;21.50;48.80;;;;;;5081445;28;20170;-82
2021/04/09 04:50:45;;;;;;;1.93;1.10;;;21.50;48.80;;;;;;5082273;28;20643;-82
2021/04/09 04:53:11;;;;;;;1.63;1.27;;;21.50;48.80;;;;;;5063481;28;20181;-82
2021/04/09 04:55:37;;;;;;;1.53;1.20;;;21.50;48.80;;;;;;5081916;28;20640;-81
2021/04/09 05:01:24;;;;;;;1.70;1.37;;;21.50;48.60;;;;;;5081551;28;20189;-82
2021/04/09 05:03:50;;;;;;;1.53;1.10;;;21.50;48.70;;;;;;5062918;28;20961;-82
2021/04/09 05:06:16;;;;;;;1.97;1.43;;;21.50;48.70;;;;;;5081349;28;20170;-82
2021/04/09 05:08:42;;;;;;;1.73;1.20;;;21.50;48.60;;;;;;5081242;28;20170;-82
2021/04/09 05:11:08;;;;;;;1.83;1.00;;;21.50;48.60;;;;;;5081015;28;20186;-82
2021/04/09 05:13:34;;;;;;;1.30;0.90;;;21.60;48.60;;;;;;5062858;28;20420;-82
2021/04/09 05:15:59;;;;;;;0.97;0.70;;;21.60;48.60;;;;;;5080580;28;20396;-82
2021/04/09 05:18:28;;;;;;;1.60;1.10;;;21.60;48.50;;;;;;5062584;28;20175;-82
2021/04/09 05:20:53;;;;;;;1.20;0.90;;;21.60;49.00;;;;;;5081082;28;20171;-82
2021/04/09 05:23:19;;;;;;;1.50;1.20;;;21.60;48.50;;;;;;5063258;28;20446;-82
2021/04/09 05:25:45;;;;;;;1.53;1.30;;;21.60;48.50;;;;;;5066931;28;20292;-82
2021/04/09 05:28:10;;;;;;;1.40;1.00;;;21.60;48.50;;;;;;5084895;28;20220;-81
2021/04/09 05:30:36;;;;;;;1.90;1.20;;;21.60;48.40;;;;;;5085089;28;20568;-81
2021/04/09 05:33:02;;;;;;;1.60;1.00;;;21.70;48.50;;;;;;5066736;28;20193;-80
2021/04/09 05:35:27;;;;;;;2.20;0.90;;;21.60;48.50;;;;;;5070044;28;20183;-82
2021/04/09 05:37:54;;;;;;;1.87;1.10;;;21.70;48.50;;;;;;5087774;28;20241;-81
2021/04/09 05:40:20;;;;;;;1.50;0.80;;;21.60;49.00;;;;;;5085577;28;20170;-81
2021/04/09 05:42:55;;;;;;;1.30;0.90;;;21.70;48.50;;;;;;5088829;28;20455;-81
2021/04/09 05:45:23;;;;;;;1.53;1.20;;;21.70;48.40;;;;;;5067592;28;20464;-81
2021/04/09 05:47:49;;;;;;;2.37;1.00;;;21.60;48.40;;;;;;5069201;28;20439;-81
2021/04/09 05:50:17;;;;;;;1.73;1.27;;;21.60;48.60;;;;;;5073424;28;20416;-82
2021/04/09 05:52:43;;;;;;;1.37;0.93;;;21.60;48.50;;;;;;5069459;28;20645;-82
2021/04/09 05:55:09;;;;;;;1.60;1.00;;;21.60;48.50;;;;;;5066363;28;20507;-82
2021/04/09 05:57:38;;;;;;;1.73;1.27;;;21.60;48.40;;;;;;5067054;28;20174;-81
2021/04/09 06:00:05;;;;;;;1.00;0.70;;;21.60;48.50;;;;;;5084220;28;20827;-81
2021/04/09 06:02:32;;;;;;;1.57;0.90;;;21.60;48.40;;;;;;5067431;28;20827;-82
2021/04/09 06:04:57;;;;;;;0.93;0.70;;;21.60;48.50;;;;;;5084506;28;20451;-82
2021/04/09 06:07:26;;;;;;;1.57;1.00;;;21.60;48.40;;;;;;5084408;28;20412;-82
2021/04/09 06:09:52;;;;;;;1.20;1.00;;;21.60;49.10;;;;;;5067012;28;20324;-82
2021/04/09 06:12:18;;;;;;;1.83;1.20;;;21.60;48.50;;;;;;5084536;28;20443;-82
2021/04/09 06:14:46;;;;;;;1.17;0.90;;;21.60;48.40;;;;;;5084224;28;20182;-81
2021/04/09 06:17:12;;;;;;;1.07;0.80;;;21.60;48.50;;;;;;5066297;28;20179;-80
2021/04/09 06:19:37;;;;;;;1.50;1.00;;;21.60;48.40;;;;;;5084497;28;20439;-81
2021/04/09 06:22:03;;;;;;;1.60;1.10;;;21.60;48.30;;;;;;5066610;28;20210;-81
2021/04/09 06:24:29;;;;;;;1.20;0.90;;;21.60;48.40;;;;;;5065258;28;20209;-81
2021/04/09 06:26:55;;;;;;;1.37;0.97;;;21.70;48.40;;;;;;5066463;28;20520;-81
2021/04/09 06:29:20;;;;;;;2.33;1.20;;;21.70;48.40;;;;;;5067164;28;20178;-84
2021/04/09 06:31:46;;;;;;;3.00;1.47;;;21.70;48.40;;;;;;5071513;28;20421;-82
2021/04/09 06:34:12;;;;;;;1.40;0.93;;;21.70;49.00;;;;;;5072030;28;20206;-82
2021/04/09 06:36:38;;;;;;;2.33;1.00;;;21.70;48.40;;;;;;5088714;28;20186;-83
2021/04/09 06:39:04;;;;;;;1.70;1.10;;;21.70;48.30;;;;;;5073669;28;20186;-83
2021/04/09 06:41:30;;;;;;;1.87;0.83;;;21.70;48.30;;;;;;5073057;28;20447;-82
2021/04/09 06:43:59;;;;;;;2.40;1.20;;;21.70;48.40;;;;;;5072294;28;20614;-83
2021/04/09 06:46:26;;;;;;;1.33;1.07;;;21.80;48.30;;;;;;5074216;28;20291;-83
2021/04/09 06:48:51;;;;;;;1.80;0.83;;;21.70;48.20;;;;;;5073880;28;20496;-82
2021/04/09 06:51:18;;;;;;;1.30;0.80;;;21.80;48.40;;;;;;5107824;28;20413;-82
2021/04/09 06:53:48;;;;;;;1.60;1.17;;;21.80;48.20;;;;;;5107969;28;20174;-83
2021/04/09 06:56:16;;;;;;;8.10;1.00;;;21.80;48.30;;;;;;5071662;28;20463;-83
2021/04/09 06:58:47;;;;;;;1.37;0.90;;;21.80;48.30;;;;;;5098528;28;20413;-83
2021/04/09 07:01:16;;;;;;;2.97;1.17;;;21.80;48.20;;;;;;5075026;28;20784;-83
2021/04/09 07:03:42;;;;;;;1.50;1.03;;;21.80;48.30;;;;;;5083287;28;20507;-83
2021/04/09 07:06:08;;;;;;;1.53;0.90;;;21.80;48.20;;;;;;5091103;28;20408;-81
2021/04/09 07:08:42;;;;;;;1.33;1.03;;;21.80;48.20;;;;;;5079581;28;20417;-83
2021/04/09 07:11:12;;;;;;;1.30;0.90;;;21.80;48.20;;;;;;5095106;28;20440;-82
2021/04/09 07:13:56;;;;;;;2.20;1.10;;;21.80;48.20;;;;;;5086438;28;20484;-83
2021/04/09 07:16:22;;;;;;;1.50;1.10;;;21.80;48.20;;;;;;5085454;28;20423;-83
2021/04/09 07:18:52;;;;;;;1.57;1.03;;;21.80;48.40;;;;;;5102652;28;20479;-83
2021/04/09 07:21:19;;;;;;;2.00;1.10;;;21.80;48.30;;;;;;5093573;28;20443;-83
2021/04/09 07:23:46;;;;;;;1.20;0.80;;;21.80;48.30;;;;;;5093796;28;20415;-83
2021/04/09 07:26:49;;;;;;;1.20;1.03;;;21.80;48.20;;;;;;5111413;28;20408;-82
2021/04/09 07:29:30;;;;;;;1.57;1.10;;;21.80;48.20;;;;;;5110753;28;20392;-82
2021/04/09 07:31:59;;;;;;;1.57;1.00;;;21.80;48.40;;;;;;5092544;28;20412;-83
2021/04/09 07:34:25;;;;;;;1.53;0.97;;;21.80;48.40;;;;;;5080386;28;20444;-85
2021/04/09 07:36:55;;;;;;;2.03;1.30;;;21.80;48.50;;;;;;5091473;28;20419;-85
2021/04/09 07:39:34;;;;;;;1.57;1.20;;;21.80;48.40;;;;;;5075995;28;20440;-85
2021/04/09 07:42:11;;;;;;;1.30;1.10;;;21.80;48.40;;;;;;5090890;28;20412;-85
2021/04/09 07:44:38;;;;;;;1.80;1.20;;;21.80;48.40;;;;;;5074362;28;20459;-86
2021/04/09 07:47:34;;;;;;;2.60;1.50;;;21.80;48.40;;;;;;5073236;28;20415;-84
2021/04/09 07:50:08;;;;;;;3.27;2.10;;;21.80;48.40;;;;;;5073033;28;20444;-83
2021/04/09 07:52:43;;;;;;;2.17;1.90;;;21.80;48.50;;;;;;5089680;28;20393;-84
2021/04/09 07:55:18;;;;;;;3.33;2.07;;;21.90;48.50;;;;;;5087589;28;20462;-85
2021/04/09 07:57:44;;;;;;;3.37;3.07;;;21.90;48.50;;;;;;5086744;28;20401;-85
2021/04/09 08:00:19;;;;;;;3.30;2.77;;;21.80;48.50;;;;;;5070607;28;20409;-84
2021/04/09 08:02:45;;;;;;;2.90;2.40;;;21.90;48.60;;;;;;5070088;28;20420;-83
2021/04/09 08:05:15;;;;;;;3.47;2.50;;;21.90;48.60;;;;;;5088778;28;20444;-84
2021/04/09 08:07:43;;;;;;;3.40;2.30;;;21.90;48.50;;;;;;5087674;28;20423;-84
2021/04/09 08:10:14;;;;;;;2.80;1.87;;;22.00;48.50;;;;;;5088512;28;20404;-84
2021/04/09 08:13:12;;;;;;;3.70;2.17;;;21.90;48.40;;;;;;5070287;28;20421;-84
2021/04/09 08:15:38;;;;;;;2.47;2.03;;;22.00;48.40;;;;;;5088129;28;20481;-83
2021/04/09 08:18:09;;;;;;;2.70;2.17;;;22.00;48.50;;;;;;5084973;28;20444;-85
2021/04/09 08:20:44;;;;;;;5.43;1.97;;;22.00;48.50;;;;;;5087083;28;20183;-82
2021/04/09 08:23:15;;;;;;;3.73;2.10;;;22.00;48.50;;;;;;5089109;28;20429;-84
2021/04/09 08:25:43;;;;;;;3.40;1.97;;;22.10;48.60;;;;;;5093502;28;20601;-82
2021/04/09 08:28:11;;;;;;;3.40;1.97;;;22.10;48.60;;;;;;5071635;28;20443;-82
2021/04/09 08:30:38;;;;;;;3.53;2.07;;;22.10;48.50;;;;;;5066017;28;20416;-82
2021/04/09 08:33:05;;;;;;;4.20;1.87;;;22.10;48.40;;;;;;5074135;28;20500;-81
2021/04/09 08:35:31;;;;;;;2.40;1.60;;;22.10;48.40;;;;;;5074169;28;20389;-82
2021/04/09 08:38:03;;;;;;;5.03;2.00;;;22.10;48.30;;;;;;5073672;28;20413;-82
2021/04/09 08:40:30;;;;;;;3.03;1.53;;;22.10;48.40;;;;;;5073809;28;20417;-82
2021/04/09 08:42:56;;;;;;;1.93;1.47;;;22.10;48.40;;;;;;5073370;28;20443;-82
2021/04/09 08:45:22;;;;;;;3.00;1.83;;;22.10;48.40;;;;;;5087433;28;20459;-82
2021/04/09 08:47:57;;;;;;;1.63;1.53;;;22.10;48.50;;;;;;5070108;28;20178;-81
2021/04/09 08:50:24;;;;;;;2.70;1.43;;;22.10;48.20;;;;;;5076424;28;20174;-82
2021/04/09 08:52:53;;;;;;;3.17;1.50;;;22.10;48.30;;;;;;5096678;28;20424;-81
2021/04/09 08:55:35;;;;;;;2.03;1.70;;;22.20;48.30;;;;;;5111427;28;20503;-82
2021/04/09 08:58:19;;;;;;;5.80;2.30;;;22.20;48.30;;;;;;5090974;28;20439;-82
2021/04/09 09:00:49;;;;;;;2.20;1.37;;;22.20;48.20;;;;;;5074631;28;20429;-80
2021/04/09 09:03:32;;;;;;;3.23;1.50;;;22.20;48.20;;;;;;5096688;28;20405;-82
2021/04/09 09:06:00;;;;;;;1.80;1.30;;;22.20;48.20;;;;;;5082930;28;20504;-82
2021/04/09 09:08:53;;;;;;;1.60;1.20;;;22.20;48.40;;;;;;5091013;28;20423;-81
2021/04/09 09:11:50;;;;;;;3.20;1.53;;;22.30;48.70;;;;;;5090928;28;20415;-82
2021/04/09 09:14:41;;;;;;;1.87;1.60;;;22.30;48.20;;;;;;5084516;28;20408;-81
2021/04/09 09:17:18;;;;;;;1.60;1.30;;;22.30;48.50;;;;;;5087239;28;20404;-81
2021/04/09 09:20:10;;;;;;;1.87;1.67;;;22.30;48.70;;;;;;5092258;28;20491;-81
2021/04/09 09:22:50;;;;;;;2.13;1.40;;;22.30;48.30;;;;;;5069148;28;20432;-81
2021/04/09 09:25:34;;;;;;;2.13;1.40;;;22.30;48.30;;;;;;5082247;28;20523;-81
2021/04/09 09:28:00;;;;;;;1.90;1.33;;;22.30;48.30;;;;;;5089466;28;20437;-81
2021/04/09 09:30:37;;;;;;;1.87;1.20;;;22.30;48.70;;;;;;5102732;28;20416;-81
2021/04/09 09:33:45;;;;;;;1.60;1.13;;;22.30;48.30;;;;;;5074982;28;20507;-81
2021/04/09 09:36:53;;;;;;;1.47;1.23;;;22.30;48.30;;;;;;4998289;28;20432;-81
2021/04/09 09:42:52;;;;;;;5.23;1.80;;;22.30;48.30;;;;;;5027957;28;20379;-81
2021/04/09 09:45:40;;;;;;;1.87;1.30;;;22.30;48.80;;;;;;5027673;28;20467;-82
2021/04/09 09:48:19;;;;;;;1.73;1.40;;;22.40;48.70;;;;;;5003517;28;20945;-82
2021/04/09 09:55:02;;;;;;;2.73;1.30;;;22.40;48.40;;;;;;5033529;28;20438;-83
2021/04/09 09:57:51;;;;;;;3.43;1.20;;;22.40;48.40;;;;;;5032646;28;20419;-83
2021/04/09 10:00:28;;;;;;;1.93;1.00;;;22.40;48.70;;;;;;5033958;28;20411;-82
2021/04/09 10:03:29;;;;;;;3.17;1.63;;;22.30;48.50;;;;;;5033952;28;20407;-81
2021/04/09 10:16:27;;;;;;;4.20;1.33;;;22.40;48.40;;;;;;4993985;28;20778;-83
2021/04/09 10:19:07;;;;;;;2.23;1.30;;;22.40;48.60;;;;;;4993929;28;20409;-82
2021/04/09 10:21:39;;;;;;;4.17;1.60;;;22.40;48.50;;;;;;4993665;28;20468;-83
2021/04/09 10:24:12;;;;;;;2.07;1.37;;;22.40;48.50;;;;;;4978037;28;20492;-83
2021/04/09 10:26:53;;;;;;;5.03;1.57;;;22.40;48.50;;;;;;4991575;28;20476;-84
2021/04/09 10:29:27;;;;;;;5.00;1.57;;;22.40;48.50;;;;;;4991418;28;20405;-82
2021/04/09 10:31:55;;;;;;;2.87;1.47;;;22.40;48.50;;;;;;4991544;28;20441;-82
2021/04/09 10:34:23;;;;;;;7.53;1.77;;;22.40;48.60;;;;;;4990836;28;20429;-82
2021/04/09 10:36:49;;;;;;;4.33;1.37;;;22.40;48.50;;;;;;4990679;28;20527;-82
2021/04/09 10:39:17;;;;;;;2.60;1.83;;;22.40;48.50;;;;;;4974524;28;20421;-82
2021/04/09 10:41:49;;;;;;;1.80;1.20;;;22.40;48.50;;;;;;4974657;28;20421;-82
2021/04/09 10:44:23;;;;;;;2.13;1.10;;;22.40;48.50;;;;;;4975922;28;20461;-82
2021/04/09 10:46:54;;;;;;;3.23;1.20;;;22.50;48.50;;;;;;5066855;28;20440;-82
2021/04/09 10:49:25;;;;;;;2.40;1.50;;;22.60;48.60;;;;;;5090473;28;20416;-82
2021/04/09 10:51:56;;;;;;;3.20;1.60;;;22.40;48.40;;;;;;5091864;28;20397;-82
2021/04/09 10:54:31;;;;;;;4.83;1.63;;;22.40;48.40;;;;;;5074381;28;20412;-82
2021/04/09 10:57:09;;;;;;;2.00;1.20;;;22.40;48.30;;;;;;5091971;28;20420;-82
2021/04/09 10:59:39;;;;;;;1.83;1.37;;;22.40;48.40;;;;;;5092159;28;20393;-82
2021/04/09 11:02:08;;;;;;;2.70;1.20;;;22.40;49.00;;;;;;5074092;28;20420;-82
2021/04/09 11:04:35;;;;;;;4.90;1.50;;;22.40;48.70;;;;;;5073558;28;20468;-82
2021/04/09 11:07:04;;;;;;;2.00;1.40;;;22.40;48.50;;;;;;5091560;28;20441;-83
2021/04/09 11:09:47;;;;;;;1.97;1.00;;;22.40;48.50;;;;;;5090851;28;20412;-82
2021/04/09 11:12:27;;;;;;;2.73;1.17;;;22.40;48.50;;;;;;5091206;28;20453;-82
2021/04/09 11:15:16;;;;;;;1.57;1.23;;;22.30;48.50;;;;;;5091137;28;20409;-83
2021/04/09 11:17:54;;;;;;;4.17;2.03;;;22.30;48.40;;;;;;5091081;28;20391;-82
2021/04/09 11:20:30;;;;;;;2.57;1.30;;;22.30;48.70;;;;;;5091459;28;20463;-83
2021/04/09 11:23:01;;;;;;;5.43;2.37;;;22.30;48.40;;;;;;5072934;28;20764;-82
2021/04/09 11:25:34;;;;;;;4.60;2.30;;;22.30;48.70;;;;;;5091293;28;20452;-82
2021/04/09 11:28:00;;;;;;;5.27;2.40;;;22.30;48.60;;;;;;5071797;28;20413;-84
2021/04/09 11:30:38;;;;;;;9.03;3.97;;;22.20;48.50;;;;;;5090027;28;20405;-84
2021/04/09 11:33:04;;;;;;;8.07;3.50;;;22.30;48.60;;;;;;5071685;28;20400;-84
2021/04/09 11:35:38;;;;;;;11.43;4.20;;;22.20;49.20;;;;;;5072272;28;20523;-85
2021/04/09 11:38:13;;;;;;;7.93;4.60;;;22.20;48.70;;;;;;5072464;28;20428;-84
2021/04/09 11:40:45;;;;;;;18.17;8.10;;;22.20;48.60;;;;;;5072299;28;20499;-84
2021/04/09 11:43:13;;;;;;;13.50;5.27;;;22.20;49.00;;;;;;5070951;28;20430;-84
2021/04/09 11:45:49;;;;;;;11.83;5.57;;;22.20;48.60;;;;;;5071723;28;20906;-84
2021/04/09 11:48:27;;;;;;;15.67;6.50;;;22.20;48.50;;;;;;5088799;28;20393;-84
2021/04/09 11:50:54;;;;;;;18.30;7.33;;;22.10;48.40;;;;;;5088991;28;20490;-84
2021/04/09 11:53:20;;;;;;;15.90;9.47;;;22.10;48.60;;;;;;5071250;28;20837;-84
2021/04/09 11:55:48;;;;;;;14.50;8.23;;;22.10;48.80;;;;;;5087666;28;20424;-85
2021/04/09 11:58:16;;;;;;;20.77;9.10;;;22.10;48.60;;;;;;5071259;28;20408;-85
2021/04/09 12:00:59;;;;;;;19.67;9.77;;;22.10;49.10;;;;;;5070118;28;20898;-84
2021/04/09 12:03:41;;;;;;;21.63;8.93;;;22.10;48.60;;;;;;5070399;28;20409;-84
2021/04/09 12:06:20;;;;;;;19.90;9.70;;;22.10;49.20;;;;;;5070556;28;20430;-83
2021/04/09 12:08:46;;;;;;;20.80;10.13;;;22.00;48.50;;;;;;5069728;28;20417;-84
2021/04/09 12:11:13;;;;;;;27.17;11.47;;;22.10;48.90;;;;;;5088628;28;20472;-84
2021/04/09 12:13:43;;;;;;;22.63;10.47;;;22.10;49.00;;;;;;5070847;28;20162;-84
2021/04/09 12:16:09;;;;;;;21.57;9.57;;;22.10;48.70;;;;;;5087270;28;20393;-83
2021/04/09 12:18:35;;;;;;;24.10;9.60;;;22.10;49.00;;;;;;5089696;28;20392;-83
2021/04/09 12:21:03;;;;;;;17.87;11.20;;;22.10;49.00;;;;;;5072601;28;20574;-84
2021/04/09 12:23:29;;;;;;;20.63;9.87;;;22.10;49.30;;;;;;5088882;28;20182;-85
2021/04/09 12:25:59;;;;;;;25.77;11.33;;;22.10;48.90;;;;;;5091047;28;20460;-84
2021/04/09 12:28:24;;;;;;;25.33;11.57;;;22.10;48.80;;;;;;5071894;28;20628;-84
2021/04/09 12:30:51;;;;;;;20.30;10.90;;;22.10;48.90;;;;;;5087139;28;20434;-84
2021/04/09 12:33:20;;;;;;;24.23;11.30;;;22.10;49.00;;;;;;5072824;28;20613;-84
2021/04/09 12:35:46;;;;;;;25.07;11.60;;;22.10;48.60;;;;;;5089399;28;20404;-84
2021/04/09 12:38:12;;;;;;;25.27;10.73;;;22.10;49.00;;;;;;5070435;28;20423;-84
2021/04/09 12:40:40;;;;;;;23.77;11.63;;;22.10;48.80;;;;;;5088739;28;20480;-84
2021/04/09 12:43:06;;;;;;;23.60;12.30;;;22.10;48.80;;;;;;5087184;28;20186;-84
2021/04/09 12:45:32;;;;;;;28.40;12.23;;;22.10;48.90;;;;;;5069989;28;20448;-83
2021/04/09 12:47:58;;;;;;;24.00;11.57;;;22.10;48.70;;;;;;5088167;28;20166;-84
2021/04/09 12:50:24;;;;;;;26.73;12.30;;;22.10;49.10;;;;;;5068969;28;20467;-81
2021/04/09 12:52:50;;;;;;;22.33;12.37;;;22.10;48.70;;;;;;5080378;28;20181;-82
2021/04/09 12:55:16;;;;;;;19.50;10.47;;;22.10;49.00;;;;;;5063078;28;20417;-82
2021/04/09 12:57:42;;;;;;;28.47;12.53;;;22.10;48.90;;;;;;5062976;28;20166;-82
2021/04/09 13:00:08;;;;;;;20.10;10.90;;;22.10;48.70;;;;;;5081178;28;20774;-81
2021/04/09 13:02:34;;;;;;;30.67;11.93;;;22.10;49.30;;;;;;5082146;28;20171;-81
2021/04/09 13:05:00;;;;;;;20.93;10.60;;;22.10;48.90;;;;;;5081477;28;20454;-82
2021/04/09 13:07:26;;;;;;;22.37;11.63;;;22.10;48.80;;;;;;5080956;28;20185;-82
2021/04/09 13:09:51;;;;;;;22.93;10.60;;;22.10;49.20;;;;;;5063731;28;20209;-82
2021/04/09 13:12:17;;;;;;;21.73;10.20;;;22.10;48.80;;;;;;5081429;28;20204;-82
2021/04/09 13:14:45;;;;;;;18.17;8.97;;;22.10;49.10;;;;;;5063133;28;20261;-81
2021/04/09 13:17:11;;;;;;;20.30;9.67;;;22.10;48.90;;;;;;5063189;28;20265;-82
2021/04/09 13:19:37;;;;;;;18.97;9.63;;;22.10;48.90;;;;;;5080462;28;20945;-83
2021/04/09 13:22:02;;;;;;;18.83;9.80;;;22.00;48.90;;;;;;5081936;28;20206;-82
2021/04/09 13:24:31;;;;;;;19.83;10.40;;;22.00;49.00;;;;;;5082980;28;20542;-82
2021/04/09 13:27:00;;;;;;;24.50;11.10;;;22.00;48.90;;;;;;5063393;28;20425;-82